createdAt,value
2018-06-22T00:01:44.427Z,12.86
2018-06-22T00:06:37.614Z,12.82
2018-06-22T00:11:30.526Z,12.80
2018-06-22T00:16:23.473Z,12.75
2018-06-22T00:21:16.428Z,12.75
2018-06-22T00:26:09.331Z,12.72
2018-06-22T00:31:02.297Z,12.74
2018-06-22T00:35:55.289Z,12.70
2018-06-22T00:40:48.316Z,12.63
2018-06-22T00:45:41.131Z,12.51
2018-06-22T00:50:34.046Z,12.41
2018-06-22T00:55:27.007Z,12.35
2018-06-22T01:00:20.129Z,12.28
2018-06-22T01:05:13.177Z,12.19
2018-06-22T01:10:06.077Z,12.15
2018-06-22T01:14:59.041Z,12.11
2018-06-22T01:19:51.930Z,12.10
2018-06-22T01:24:44.961Z,12.03
2018-06-22T01:29:37.900Z,11.97
2018-06-22T01:34:30.939Z,11.91
2018-06-22T01:39:23.983Z,11.87
2018-06-22T01:44:16.944Z,11.87
2018-06-22T01:49:09.873Z,11.83
2018-06-22T01:54:02.889Z,11.76
2018-06-22T01:58:55.785Z,11.74
2018-06-22T02:03:48.732Z,11.74
2018-06-22T02:08:41.862Z,11.77
2018-06-22T02:13:34.908Z,11.80
2018-06-22T02:18:27.865Z,11.79
2018-06-22T02:23:21.016Z,11.83
2018-06-22T02:28:13.992Z,11.78
2018-06-22T02:33:06.940Z,11.75
2018-06-22T02:37:59.988Z,11.76
2018-06-22T02:42:52.992Z,11.74
2018-06-22T02:47:45.994Z,11.73
2018-06-22T02:52:38.978Z,11.72
2018-06-22T02:57:31.944Z,11.78
2018-06-22T03:02:24.943Z,11.77
2018-06-22T03:07:17.850Z,11.79
2018-06-22T03:12:10.881Z,11.80
2018-06-22T03:17:03.921Z,11.79
2018-06-22T03:21:56.947Z,11.79
2018-06-22T03:26:49.964Z,11.80
2018-06-22T03:31:42.985Z,11.84
2018-06-22T03:36:35.974Z,11.81
2018-06-22T03:41:28.966Z,11.84
2018-06-22T03:46:22.019Z,11.84
2018-06-22T03:51:14.973Z,11.86
2018-06-22T03:56:08.039Z,11.86
2018-06-22T04:01:01.046Z,11.87
2018-06-22T04:05:54.077Z,11.86
2018-06-22T04:10:47.122Z,11.91
2018-06-22T04:15:40.132Z,11.91
2018-06-22T04:20:33.157Z,11.94
2018-06-22T04:25:26.201Z,11.94
2018-06-22T04:30:19.252Z,11.96
2018-06-22T04:35:12.539Z,11.96
2018-06-22T04:40:05.622Z,11.96
2018-06-22T04:44:58.712Z,11.99
2018-06-22T04:49:51.761Z,12.01
2018-06-22T04:54:44.791Z,12.04
2018-06-22T04:59:37.785Z,12.06
2018-06-22T05:04:30.791Z,12.12
2018-06-22T05:09:23.784Z,12.14
2018-06-22T05:14:16.959Z,12.11
2018-06-22T05:19:09.952Z,12.11
2018-06-22T05:24:02.938Z,12.13
2018-06-22T05:28:55.960Z,12.14
2018-06-22T05:33:49.078Z,12.20
2018-06-22T05:38:42.105Z,12.23
2018-06-22T05:43:35.189Z,12.25
2018-06-22T05:48:28.121Z,12.31
2018-06-22T05:53:21.191Z,12.37
2018-06-22T05:58:14.134Z,12.41
2018-06-22T06:03:07.160Z,12.42
2018-06-22T06:08:00.174Z,12.49
2018-06-22T06:12:53.191Z,12.49
2018-06-22T06:17:46.220Z,12.54
2018-06-22T06:22:39.390Z,12.57
2018-06-22T06:27:32.439Z,12.70
2018-06-22T06:32:25.481Z,12.70
2018-06-22T06:37:18.474Z,12.72
2018-06-22T06:42:12.693Z,12.78
2018-06-22T06:47:05.917Z,12.84
2018-06-22T06:51:58.857Z,12.87
2018-06-22T06:56:51.934Z,12.89
2018-06-22T07:01:44.891Z,12.91
2018-06-22T07:06:37.816Z,12.91
2018-06-22T07:11:30.810Z,12.95
2018-06-22T07:16:23.800Z,13.04
2018-06-22T07:21:16.674Z,13.09
2018-06-22T07:26:09.781Z,13.14
2018-06-22T07:31:02.773Z,13.34
2018-06-22T07:35:55.781Z,13.43
2018-06-22T07:40:48.778Z,13.35
2018-06-22T07:45:41.836Z,13.24
2018-06-22T07:50:34.885Z,13.23
2018-06-22T07:55:27.999Z,13.23
2018-06-22T08:00:21.054Z,13.23
2018-06-22T08:05:14.048Z,13.25
2018-06-22T08:10:07.103Z,13.20
2018-06-22T08:15:00.227Z,13.21
2018-06-22T08:19:53.214Z,13.27
2018-06-22T08:24:46.194Z,13.30
2018-06-22T08:29:39.483Z,13.27
2018-06-22T08:34:32.493Z,13.30
2018-06-22T08:39:25.535Z,13.35
2018-06-22T08:44:18.502Z,13.37
2018-06-22T08:49:11.396Z,13.43
2018-06-22T08:54:04.436Z,13.43
2018-06-22T08:58:57.451Z,13.57
2018-06-22T09:03:50.395Z,13.97
2018-06-22T09:08:43.344Z,14.73
2018-06-22T09:13:36.314Z,15.44
2018-06-22T09:18:30.068Z,15.85
2018-06-22T09:23:23.034Z,16.19
2018-06-22T09:28:16.354Z,16.03
2018-06-22T09:33:09.356Z,15.49
2018-06-22T09:38:02.557Z,14.94
2018-06-22T09:42:55.619Z,14.65
2018-06-22T09:47:48.982Z,14.95
2018-06-22T09:52:41.914Z,15.55
2018-06-22T09:57:35.276Z,15.88
2018-06-22T10:02:28.357Z,15.99
2018-06-22T10:07:21.421Z,15.86
2018-06-22T10:12:14.476Z,15.56
2018-06-22T10:17:07.563Z,15.18
2018-06-22T10:22:00.599Z,14.83
2018-06-22T10:26:53.540Z,14.50
2018-06-22T10:31:46.488Z,14.51
2018-06-22T10:36:39.580Z,14.75
2018-06-22T10:41:32.678Z,15.18
2018-06-22T10:46:25.828Z,15.61
2018-06-22T10:51:18.837Z,15.69
2018-06-22T10:56:11.948Z,16.17
2018-06-22T11:01:05.449Z,16.52
2018-06-22T11:05:58.415Z,16.60
2018-06-22T11:10:51.391Z,16.53
2018-06-22T11:15:44.366Z,16.47
2018-06-22T11:20:37.374Z,16.48
2018-06-22T11:25:30.346Z,16.67
2018-06-22T11:30:23.429Z,17.00
2018-06-22T11:35:16.424Z,17.40
2018-06-22T11:40:09.370Z,17.66
2018-06-22T11:45:02.376Z,17.80
2018-06-22T11:49:55.377Z,17.90
2018-06-22T11:54:48.355Z,18.16
2018-06-22T11:59:41.633Z,18.39
2018-06-22T12:04:34.678Z,18.72
2018-06-22T12:09:27.860Z,18.94
2018-06-22T12:14:20.923Z,18.85
2018-06-22T12:19:14.009Z,18.98
2018-06-22T12:24:07.034Z,19.09
2018-06-22T12:29:00.112Z,19.25
2018-06-22T12:33:53.146Z,19.36
2018-06-22T12:38:46.181Z,19.38
2018-06-22T12:43:39.182Z,19.62
2018-06-22T12:48:32.384Z,19.84
2018-06-22T12:53:25.355Z,19.82
2018-06-22T12:58:18.335Z,19.92
2018-06-22T13:03:11.353Z,20.03
2018-06-22T13:08:04.831Z,20.18
2018-06-22T13:12:57.788Z,20.07
2018-06-22T13:17:50.876Z,20.03
2018-06-22T13:22:43.970Z,20.08
2018-06-22T13:27:36.936Z,20.27
2018-06-22T13:32:29.937Z,20.46
2018-06-22T13:37:22.967Z,20.64
2018-06-22T13:42:16.025Z,20.82
2018-06-22T13:47:09.388Z,20.71
2018-06-22T13:52:02.417Z,20.63
2018-06-22T13:56:55.534Z,20.75
2018-06-22T14:01:48.804Z,20.89
2018-06-22T14:06:47.390Z,20.83
2018-06-22T14:11:44.141Z,20.73
2018-06-22T14:16:38.944Z,20.64
2018-06-22T14:21:32.147Z,20.55
2018-06-22T14:26:25.154Z,20.49
2018-06-22T14:31:18.200Z,20.44
2018-06-22T14:36:11.095Z,20.42
2018-06-22T14:41:04.108Z,20.40
2018-06-22T14:45:57.589Z,20.49
2018-06-22T14:50:50.607Z,20.62
2018-06-22T14:55:49.557Z,20.79
2018-06-22T15:00:48.566Z,20.90
2018-06-22T15:07:50.157Z,20.83
2018-06-22T15:12:43.292Z,20.70
2018-06-22T15:17:41.869Z,20.64
2018-06-22T15:22:34.933Z,20.58
2018-06-22T15:27:27.943Z,20.56
2018-06-22T15:32:21.140Z,20.54
2018-06-22T15:37:19.877Z,20.55
2018-06-22T15:42:19.639Z,20.62
2018-06-22T15:47:18.414Z,20.76
2018-06-22T15:52:17.096Z,20.90
2018-06-22T15:57:10.281Z,20.92
2018-06-22T16:02:09.019Z,20.89
2018-06-22T16:07:01.988Z,20.84
2018-06-22T16:11:59.567Z,20.78
2018-06-22T16:16:58.239Z,20.78
2018-06-22T16:21:57.063Z,20.80
2018-06-22T16:26:55.680Z,20.76
2018-06-22T16:31:48.714Z,20.78
2018-06-22T16:36:41.806Z,20.72
2018-06-22T16:41:34.795Z,20.66
2018-06-22T16:46:27.875Z,20.68
2018-06-22T16:51:20.921Z,20.68
2018-06-22T16:56:13.956Z,20.65
2018-06-22T17:01:08.776Z,20.63
2018-06-22T17:06:01.869Z,20.57
2018-06-22T17:11:00.561Z,20.52
2018-06-22T17:15:59.132Z,20.45
2018-06-22T17:20:52.099Z,20.32
2018-06-22T17:25:45.166Z,20.28
2018-06-22T17:30:38.196Z,20.25
2018-06-22T17:35:31.260Z,20.23
2018-06-22T17:40:24.301Z,20.22
2018-06-22T17:45:17.471Z,20.19
2018-06-22T17:50:16.092Z,20.18
2018-06-22T17:55:09.137Z,20.14
2018-06-22T18:00:07.836Z,20.11
2018-06-22T18:05:06.537Z,20.09
2018-06-22T18:10:05.191Z,20.09
2018-06-22T18:14:58.283Z,20.04
2018-06-22T18:19:51.484Z,19.99
2018-06-22T18:24:44.604Z,19.88
2018-06-22T18:29:37.599Z,19.74
2018-06-22T18:34:30.641Z,19.64
2018-06-22T18:39:23.636Z,19.54
2018-06-22T18:44:17.219Z,19.49
2018-06-22T18:49:10.291Z,19.40
2018-06-22T18:54:09.109Z,19.36
2018-06-22T18:59:07.745Z,19.32
2018-06-22T19:04:00.724Z,19.29
2018-06-22T19:08:53.758Z,19.24
2018-06-22T19:13:46.794Z,19.13
2018-06-22T19:18:39.999Z,19.03
2018-06-22T19:23:32.962Z,18.92
2018-06-22T19:28:26.063Z,18.84
2018-06-22T19:33:19.133Z,18.74
2018-06-22T19:38:13.506Z,18.67
2018-06-22T19:43:10.342Z,18.56
2018-06-22T19:48:09.089Z,18.50
2018-06-22T19:53:08.857Z,18.37
2018-06-22T19:58:01.851Z,18.31
2018-06-22T20:02:55.003Z,18.23
2018-06-22T20:07:47.851Z,18.17
2018-06-22T20:12:40.891Z,18.08
2018-06-22T20:17:33.893Z,17.94
2018-06-22T20:22:26.900Z,17.86
2018-06-22T20:27:19.940Z,17.79
2018-06-22T20:32:14.938Z,17.73
2018-06-22T20:37:13.744Z,17.67
2018-06-22T20:42:12.448Z,17.65
2018-06-22T20:47:11.219Z,17.57
2018-06-22T20:52:04.198Z,17.41
2018-06-22T20:56:57.305Z,17.33
2018-06-22T21:01:50.281Z,17.27
2018-06-22T21:06:43.370Z,17.18
2018-06-22T21:11:36.426Z,17.07
2018-06-22T21:16:29.451Z,17.03
2018-06-22T21:21:28.411Z,16.95
2018-06-22T21:26:21.693Z,16.92
2018-06-22T21:31:20.331Z,16.93
2018-06-22T21:36:18.938Z,16.89
2018-06-22T21:41:11.947Z,16.88
2018-06-22T21:46:05.361Z,16.83
2018-06-22T21:50:58.379Z,16.71
2018-06-22T21:55:51.391Z,16.66
2018-06-22T22:00:44.468Z,16.59
2018-06-22T22:05:37.464Z,16.52
2018-06-22T22:10:35.946Z,16.47
2018-06-22T22:15:37.671Z,16.44
2018-06-22T22:20:30.682Z,16.39
2018-06-22T22:25:24.698Z,16.34
2018-06-22T22:30:17.716Z,16.27
2018-06-22T22:35:10.816Z,16.21
2018-06-22T22:40:03.863Z,16.14
2018-06-22T22:44:56.986Z,16.09
2018-06-22T22:49:50.011Z,16.06
2018-06-22T22:54:43.060Z,15.97
2018-06-22T22:59:36.097Z,15.92
2018-06-22T23:04:29.097Z,15.83
2018-06-22T23:09:22.218Z,15.76
2018-06-22T23:14:15.274Z,15.69
2018-06-22T23:19:08.325Z,15.68
2018-06-22T23:24:01.341Z,15.68
2018-06-22T23:28:54.335Z,15.55
2018-06-22T23:33:47.513Z,15.47
2018-06-22T23:38:40.579Z,15.46
2018-06-22T23:43:33.704Z,15.44
2018-06-22T23:48:26.767Z,15.28
2018-06-22T23:53:19.824Z,15.18
2018-06-22T23:58:12.969Z,15.09
